Time;durP1;ratioP1;P1;durP2;ratioP2;P2;SDS_P1;SDS_P2;PMS_P1;PMS_P2;Temp;Humidity;BMP_temperature;BMP_pressure;BME280_temperature;BME280_humidity;BME280_pressure;Samples;Min_cycle;Max_cycle;Signal;HPM_P1;HPM_P2
2021/04/20 00:01:13;;;;;;;77.60;45.35;;;9.00;99.90;;;;;;5114633;28;20277;-75
2021/04/20 00:03:38;;;;;;;83.32;45.67;;;9.00;99.90;;;;;;5114768;28;20525;-76
2021/04/20 00:06:08;;;;;;;74.40;45.65;;;9.00;99.90;;;;;;5114277;28;20185;-75
2021/04/20 00:08:34;;;;;;;78.30;46.10;;;9.00;99.90;;;;;;5112951;28;20269;-76
2021/04/20 00:10:59;;;;;;;74.82;46.13;;;9.00;99.90;;;;;;5114687;28;20177;-75
2021/04/20 00:13:25;;;;;;;72.30;43.55;;;8.90;99.90;;;;;;5114086;28;20169;-75
2021/04/20 00:15:51;;;;;;;75.30;45.13;;;8.90;99.90;;;;;;5114578;28;20193;-75
2021/04/20 00:18:17;;;;;;;71.78;41.53;;;8.90;99.90;;;;;;5113336;28;20230;-76
2021/04/20 00:20:42;;;;;;;77.70;45.22;;;8.90;99.90;;;;;;5112176;28;20411;-76
2021/04/20 00:23:09;;;;;;;80.50;48.50;;;8.90;99.90;;;;;;5112711;28;20173;-76
2021/04/20 00:25:35;;;;;;;78.35;47.17;;;8.90;99.90;;;;;;5114358;28;20184;-76
2021/04/20 00:28:01;;;;;;;83.47;48.53;;;8.90;99.90;;;;;;5114494;28;20671;-75
2021/04/20 00:30:27;;;;;;;76.28;46.88;;;8.90;99.90;;;;;;5112908;28;20173;-76
2021/04/20 00:32:52;;;;;;;69.95;43.38;;;8.90;99.90;;;;;;5112559;28;20181;-76
2021/04/20 00:35:18;;;;;;;77.47;44.30;;;8.80;99.90;;;;;;5113126;28;20725;-76
2021/04/20 00:37:44;;;;;;;76.10;46.03;;;8.70;99.90;;;;;;5114337;28;20165;-75
2021/04/20 00:40:12;;;;;;;77.45;45.13;;;8.60;99.90;;;;;;5112739;28;20188;-75
2021/04/20 00:43:03;;;;;;;70.95;43.22;;;8.60;99.90;;;;;;5114001;28;20250;-77
2021/04/20 00:45:32;;;;;;;72.15;43.72;;;8.60;99.90;;;;;;5114141;28;20166;-77
2021/04/20 00:47:59;;;;;;;76.32;45.05;;;8.60;99.90;;;;;;5114036;28;20172;-77
2021/04/20 00:50:29;;;;;;;79.50;46.92;;;8.60;99.90;;;;;;5112607;28;20199;-77
2021/04/20 00:52:55;;;;;;;75.40;44.60;;;8.60;99.90;;;;;;5112607;28;20180;-77
2021/04/20 00:55:20;;;;;;;66.20;42.13;;;8.50;99.90;;;;;;5114023;28;20205;-77
2021/04/20 00:57:47;;;;;;;68.55;41.28;;;8.50;99.90;;;;;;5114045;28;20174;-78
2021/04/20 01:00:19;;;;;;;60.88;39.67;;;8.50;99.90;;;;;;5113533;28;20181;-77
2021/04/20 01:02:45;;;;;;;56.25;37.90;;;8.50;99.90;;;;;;5112047;28;20169;-77
2021/04/20 01:05:15;;;;;;;75.50;46.25;;;8.50;99.90;;;;;;5113881;28;20196;-78
2021/04/20 01:07:42;;;;;;;71.45;42.78;;;8.50;99.90;;;;;;5113999;28;20153;-77
2021/04/20 01:10:09;;;;;;;69.97;42.97;;;8.50;99.90;;;;;;5112498;28;20177;-77
2021/04/20 01:12:37;;;;;;;79.07;45.13;;;8.50;99.90;;;;;;5112991;28;20578;-76
2021/04/20 01:15:04;;;;;;;80.95;47.63;;;8.50;99.90;;;;;;5112926;28;20210;-77
2021/04/20 01:17:30;;;;;;;85.93;47.10;;;8.50;99.90;;;;;;5092967;28;20195;-77
2021/04/20 01:20:00;;;;;;;79.82;47.83;;;8.50;99.90;;;;;;5092429;28;20173;-77
2021/04/20 01:22:34;;;;;;;82.07;48.05;;;8.50;99.90;;;;;;5102621;28;20193;-77
2021/04/20 01:25:00;;;;;;;86.47;47.80;;;8.40;99.90;;;;;;5125993;27;20171;-77
2021/04/20 01:27:26;;;;;;;76.35;45.60;;;8.40;99.90;;;;;;5137341;27;20247;-77
2021/04/20 01:29:56;;;;;;;78.63;43.97;;;8.30;99.90;;;;;;5118467;27;20694;-77
2021/04/20 01:32:25;;;;;;;93.65;50.05;;;8.30;99.90;;;;;;5099522;28;20641;-77
2021/04/20 01:34:52;;;;;;;92.78;50.83;;;8.30;99.90;;;;;;5117797;28;20165;-77
2021/04/20 01:37:18;;;;;;;96.20;52.50;;;8.20;99.90;;;;;;5117849;28;20653;-77
2021/04/20 01:39:47;;;;;;;76.85;44.22;;;8.10;99.90;;;;;;5117291;28;20170;-78
2021/04/20 01:42:13;;;;;;;70.93;43.30;;;8.10;99.90;;;;;;5117472;28;20169;-77
2021/04/20 01:44:39;;;;;;;73.28;44.45;;;8.00;99.90;;;;;;5117149;28;20165;-77
2021/04/20 01:47:05;;;;;;;68.90;44.13;;;7.90;99.90;;;;;;5117558;28;20165;-77
2021/04/20 01:49:31;;;;;;;67.75;40.92;;;7.80;99.90;;;;;;5117474;28;20173;-77
2021/04/20 01:51:57;;;;;;;65.35;39.38;;;7.90;99.90;;;;;;5116469;28;20536;-77
2021/04/20 01:54:22;;;;;;;70.90;42.65;;;7.90;99.90;;;;;;5115663;28;20530;-77
2021/04/20 01:56:49;;;;;;;76.63;44.78;;;7.90;99.90;;;;;;5115977;28;20193;-77
2021/04/20 01:59:16;;;;;;;85.20;47.30;;;7.90;99.90;;;;;;5116893;28;20177;-77
2021/04/20 02:01:42;;;;;;;88.65;48.83;;;7.90;99.90;;;;;;5117224;28;20536;-77
2021/04/20 02:04:09;;;;;;;92.90;51.67;;;7.90;99.90;;;;;;5115896;28;20645;-77
2021/04/20 02:06:35;;;;;;;96.90;51.00;;;8.00;99.90;;;;;;5098881;28;20177;-77
2021/04/20 02:09:02;;;;;;;80.40;46.83;;;7.90;99.90;;;;;;5115196;28;20211;-77
2021/04/20 02:11:28;;;;;;;78.93;45.28;;;7.90;99.90;;;;;;5117093;28;20172;-77
2021/04/20 02:13:57;;;;;;;77.22;44.65;;;8.00;99.90;;;;;;5115349;28;20225;-77
2021/04/20 02:16:23;;;;;;;71.03;42.28;;;7.90;99.90;;;;;;5116834;28;20193;-77
2021/04/20 02:18:53;;;;;;;69.55;42.10;;;7.90;99.90;;;;;;5116412;28;20173;-77
2021/04/20 02:21:19;;;;;;;55.22;36.22;;;7.80;99.90;;;;;;5115607;28;20172;-77
2021/04/20 02:23:45;;;;;;;65.15;37.80;;;7.70;99.90;;;;;;5117093;28;20635;-76
2021/04/20 02:26:14;;;;;;;61.00;37.60;;;7.70;99.90;;;;;;5115113;28;20193;-76
2021/04/20 02:28:40;;;;;;;81.85;44.35;;;7.70;99.90;;;;;;5116833;28;20177;-77
2021/04/20 02:31:08;;;;;;;83.10;47.65;;;7.60;99.90;;;;;;5115428;28;20560;-77
2021/04/20 02:33:35;;;;;;;92.53;50.28;;;7.50;99.90;;;;;;5115417;28;20664;-77
2021/04/20 02:36:01;;;;;;;100.13;52.80;;;7.50;99.90;;;;;;5116639;28;20198;-77
2021/04/20 02:38:28;;;;;;;97.25;52.30;;;7.50;99.90;;;;;;5115781;28;20524;-77
2021/04/20 02:40:56;;;;;;;99.70;53.20;;;7.50;99.90;;;;;;5115144;28;20555;-76
2021/04/20 02:43:23;;;;;;;103.03;52.13;;;7.60;99.90;;;;;;5115222;28;20170;-77
2021/04/20 02:45:52;;;;;;;93.40;50.83;;;7.70;99.90;;;;;;5116695;28;20173;-77
2021/04/20 02:48:18;;;;;;;100.07;52.65;;;7.70;99.90;;;;;;5114743;28;20341;-77
2021/04/20 02:50:45;;;;;;;94.20;50.13;;;7.70;99.90;;;;;;5116026;28;20636;-77
2021/04/20 02:53:15;;;;;;;87.82;48.08;;;7.70;99.90;;;;;;5115019;28;20173;-78
2021/04/20 02:55:41;;;;;;;94.93;49.67;;;7.60;99.90;;;;;;5116072;28;20275;-76
2021/04/20 02:58:16;;;;;;;92.75;47.65;;;7.50;99.90;;;;;;5115720;28;20177;-76
2021/04/20 03:00:49;;;;;;;80.15;45.42;;;7.50;99.90;;;;;;5114935;28;20544;-76
2021/04/20 03:03:16;;;;;;;87.45;47.80;;;7.50;99.90;;;;;;5115671;28;20633;-77
2021/04/20 03:05:43;;;;;;;96.88;51.60;;;7.50;99.90;;;;;;5116115;28;20166;-77
2021/04/20 03:08:09;;;;;;;89.25;51.58;;;7.50;99.90;;;;;;5114167;28;20176;-76
2021/04/20 03:10:38;;;;;;;98.80;52.17;;;7.50;99.90;;;;;;5097577;28;20166;-78
2021/04/20 03:13:05;;;;;;;102.80;53.53;;;7.50;99.90;;;;;;5115857;28;20169;-77
2021/04/20 03:15:32;;;;;;;93.88;50.13;;;7.50;99.90;;;;;;5115455;28;20664;-77
2021/04/20 03:17:58;;;;;;;86.10;48.58;;;7.50;99.90;;;;;;5114088;28;20178;-77
2021/04/20 03:20:24;;;;;;;92.30;50.22;;;7.50;99.90;;;;;;5114587;28;20519;-77
2021/04/20 03:22:51;;;;;;;94.97;49.17;;;7.50;99.90;;;;;;5097230;28;20226;-77
2021/04/20 03:25:18;;;;;;;95.85;49.15;;;7.50;99.90;;;;;;5115675;28;20174;-77
2021/04/20 03:27:50;;;;;;;76.03;43.88;;;7.40;99.90;;;;;;5115074;28;20222;-77
2021/04/20 03:30:18;;;;;;;79.65;46.33;;;7.40;99.90;;;;;;5115612;28;20169;-77
2021/04/20 03:33:06;;;;;;;63.67;38.30;;;7.40;99.90;;;;;;5113508;28;20213;-76
2021/04/20 03:36:09;;;;;;;65.78;40.13;;;7.30;99.90;;;;;;5114156;28;20193;-77
2021/04/20 03:39:04;;;;;;;88.50;50.08;;;7.30;99.90;;;;;;5113803;28;20184;-77
2021/04/20 03:41:35;;;;;;;98.88;52.05;;;7.30;99.90;;;;;;5115050;28;20173;-77
2021/04/20 03:44:03;;;;;;;96.13;51.42;;;7.20;99.90;;;;;;5115110;28;20668;-77
2021/04/20 03:46:34;;;;;;;94.72;51.92;;;7.10;99.90;;;;;;5113296;28;20585;-77
2021/04/20 03:49:10;;;;;;;92.20;49.83;;;7.10;99.90;;;;;;5115252;28;20207;-77
2021/04/20 03:51:38;;;;;;;94.93;51.30;;;7.20;99.90;;;;;;5114818;28;20241;-78
2021/04/20 03:54:07;;;;;;;94.85;50.00;;;7.20;99.90;;;;;;5113577;28;20174;-78
2021/04/20 03:56:34;;;;;;;97.90;52.33;;;7.30;99.90;;;;;;5114698;28;20190;-77
2021/04/20 03:59:03;;;;;;;100.95;53.47;;;7.30;99.90;;;;;;5096375;28;20174;-77
2021/04/20 04:01:41;;;;;;;97.75;49.92;;;7.30;99.90;;;;;;5114933;28;20260;-77
2021/04/20 04:04:08;;;;;;;72.10;42.75;;;7.30;99.90;;;;;;5113498;28;20226;-77
2021/04/20 04:06:39;;;;;;;76.45;42.22;;;7.20;99.90;;;;;;5114596;28;20166;-77
2021/04/20 04:09:06;;;;;;;84.00;41.85;;;7.20;99.90;;;;;;5113862;28;20161;-77
2021/04/20 04:11:36;;;;;;;89.30;47.25;;;7.10;99.90;;;;;;5114809;28;20461;-77
2021/04/20 04:14:03;;;;;;;90.00;48.72;;;7.10;99.90;;;;;;5114708;28;20197;-78
2021/04/20 04:16:30;;;;;;;75.10;44.17;;;7.00;99.90;;;;;;5114236;28;20196;-77
2021/04/20 04:18:57;;;;;;;78.93;42.80;;;7.00;99.90;;;;;;5112865;28;20235;-77
2021/04/20 04:21:34;;;;;;;90.60;48.05;;;6.90;99.90;;;;;;5114533;28;20161;-77
2021/04/20 04:24:04;;;;;;;91.55;48.22;;;6.90;99.90;;;;;;5113332;28;20193;-77
2021/04/20 04:26:35;;;;;;;84.30;48.78;;;6.90;99.90;;;;;;5113868;28;20166;-77
2021/04/20 04:29:02;;;;;;;84.15;47.00;;;6.80;99.90;;;;;;5114464;28;20191;-77
2021/04/20 04:31:33;;;;;;;78.07;43.85;;;6.80;99.90;;;;;;5114446;28;20555;-77
2021/04/20 04:34:00;;;;;;;85.50;44.28;;;6.90;99.90;;;;;;5114572;28;20189;-77
2021/04/20 04:36:26;;;;;;;73.73;41.63;;;6.80;99.90;;;;;;5114262;28;20246;-77
2021/04/20 04:38:52;;;;;;;79.77;45.07;;;6.90;99.90;;;;;;5114016;28;20177;-77
2021/04/20 04:41:19;;;;;;;87.20;45.73;;;6.80;99.90;;;;;;5113030;28;20517;-76
2021/04/20 04:43:44;;;;;;;75.00;42.70;;;6.90;99.90;;;;;;5114334;28;20260;-76
2021/04/20 04:46:11;;;;;;;77.00;41.25;;;6.90;99.90;;;;;;5114489;28;20248;-76
2021/04/20 04:48:37;;;;;;;74.87;42.63;;;6.80;99.90;;;;;;5113870;28;20173;-76
2021/04/20 04:51:04;;;;;;;78.05;43.28;;;6.80;99.90;;;;;;5110683;28;20454;-76
2021/04/20 04:53:32;;;;;;;83.30;46.42;;;6.80;99.90;;;;;;5092429;28;20173;-77
2021/04/20 04:56:00;;;;;;;88.30;44.03;;;7.10;99.90;;;;;;5093442;28;20193;-78
2021/04/20 04:58:30;;;;;;;94.07;47.17;;;7.00;99.90;;;;;;5091957;28;20641;-79
2021/04/20 05:00:59;;;;;;;77.00;42.57;;;7.20;99.90;;;;;;5093630;28;20691;-78
2021/04/20 05:03:25;;;;;;;78.43;42.63;;;7.10;99.90;;;;;;5110447;28;20260;-78
2021/04/20 05:05:56;;;;;;;80.27;42.77;;;7.20;99.90;;;;;;5112721;28;20199;-78
2021/04/20 05:08:23;;;;;;;83.87;45.97;;;7.20;99.90;;;;;;5113907;28;20165;-77
2021/04/20 05:10:50;;;;;;;77.10;43.60;;;7.30;99.90;;;;;;5112563;28;20177;-77
2021/04/20 05:13:17;;;;;;;76.47;43.03;;;7.30;99.90;;;;;;5112286;28;20173;-77
2021/04/20 05:15:42;;;;;;;71.22;38.60;;;7.40;99.90;;;;;;5112428;28;20706;-77
2021/04/20 05:18:13;;;;;;;67.82;40.10;;;7.50;99.90;;;;;;5113395;28;20173;-76
2021/04/20 05:20:46;;;;;;;65.78;39.40;;;7.60;99.90;;;;;;5113883;28;20160;-77
2021/04/20 05:23:16;;;;;;;75.78;42.53;;;7.70;99.90;;;;;;5111779;28;20216;-76
2021/04/20 05:25:43;;;;;;;77.93;45.42;;;7.80;99.90;;;;;;5112478;28;20169;-77
2021/04/20 05:28:09;;;;;;;72.93;43.15;;;7.90;99.90;;;;;;5095652;28;20169;-77
2021/04/20 05:30:35;;;;;;;65.93;40.55;;;8.10;99.90;;;;;;5112286;28;20168;-76
2021/04/20 05:33:01;;;;;;;70.72;41.65;;;8.20;99.90;;;;;;5111913;28;20545;-77
2021/04/20 05:35:27;;;;;;;66.55;40.55;;;8.40;99.90;;;;;;5113657;28;20243;-77
2021/04/20 05:37:54;;;;;;;59.88;37.58;;;8.50;99.90;;;;;;5112760;28;20201;-77
2021/04/20 05:40:20;;;;;;;66.82;39.15;;;8.50;99.90;;;;;;5112575;28;20256;-77
2021/04/20 05:42:46;;;;;;;65.90;38.10;;;8.70;99.90;;;;;;5112543;28;20557;-77
2021/04/20 05:45:15;;;;;;;70.32;39.50;;;8.80;99.90;;;;;;5113614;28;20176;-77
2021/04/20 05:47:43;;;;;;;67.97;41.83;;;8.90;99.90;;;;;;5095254;28;20174;-76
2021/04/20 05:50:13;;;;;;;72.40;40.22;;;9.10;99.90;;;;;;5113838;28;20249;-77
2021/04/20 05:52:39;;;;;;;58.97;37.33;;;9.20;99.90;;;;;;5113300;28;20169;-77
2021/04/20 05:55:07;;;;;;;57.95;35.40;;;9.40;99.90;;;;;;5112159;28;20226;-77
2021/04/20 05:57:33;;;;;;;56.00;34.55;;;9.60;99.90;;;;;;5113299;28;20169;-77
2021/04/20 06:00:00;;;;;;;55.95;35.97;;;9.80;99.90;;;;;;5111854;28;20264;-77
2021/04/20 06:02:30;;;;;;;59.28;37.15;;;9.90;99.90;;;;;;5113263;28;20638;-77
2021/04/20 06:05:14;;;;;;;54.17;34.03;;;10.00;99.90;;;;;;5113465;28;20173;-77
2021/04/20 06:07:43;;;;;;;55.78;32.35;;;10.30;99.90;;;;;;5112241;28;20522;-77
2021/04/20 06:10:10;;;;;;;47.83;30.65;;;10.50;99.90;;;;;;5115528;28;20205;-77
2021/04/20 06:12:36;;;;;;;50.33;32.42;;;10.60;99.90;;;;;;5115328;28;20169;-77
2021/04/20 06:15:05;;;;;;;58.88;35.47;;;10.80;99.90;;;;;;5115608;28;20206;-76
2021/04/20 06:17:37;;;;;;;58.63;35.83;;;10.90;99.90;;;;;;5117191;28;20676;-77
2021/04/20 06:20:04;;;;;;;46.47;31.95;;;11.20;99.90;;;;;;5115767;28;20193;-77
2021/04/20 06:22:31;;;;;;;47.55;31.23;;;11.40;99.90;;;;;;5117016;28;20227;-77
2021/04/20 06:24:57;;;;;;;48.90;33.42;;;11.50;99.90;;;;;;5115635;28;20196;-77
2021/04/20 06:27:22;;;;;;;47.50;33.20;;;11.60;99.90;;;;;;5115338;28;20169;-77
2021/04/20 06:29:48;;;;;;;59.28;34.97;;;11.90;99.90;;;;;;5115096;28;20165;-77
2021/04/20 06:32:14;;;;;;;52.55;36.70;;;12.30;99.90;;;;;;5115270;28;20637;-77
2021/04/20 06:34:40;;;;;;;51.10;35.33;;;12.60;99.90;;;;;;5116625;28;20154;-77
2021/04/20 06:37:08;;;;;;;61.25;38.22;;;12.90;99.90;;;;;;5115158;28;20641;-77
2021/04/20 06:39:33;;;;;;;73.57;41.28;;;13.10;99.90;;;;;;5114973;28;20633;-77
2021/04/20 06:42:01;;;;;;;69.88;43.45;;;13.20;99.90;;;;;;5116350;28;20199;-77
2021/04/20 06:44:34;;;;;;;64.75;43.00;;;13.40;99.90;;;;;;5116124;28;20165;-77
2021/04/20 06:47:32;;;;;;;75.38;46.85;;;13.80;99.90;;;;;;5115184;28;20165;-77
2021/04/20 06:50:03;;;;;;;74.30;43.30;;;15.00;99.90;;;;;;5114448;28;20222;-77
2021/04/20 06:52:57;;;;;;;66.80;42.22;;;16.70;99.90;;;;;;5115993;28;20640;-77
2021/04/20 06:55:28;;;;;;;55.85;39.53;;;18.60;99.90;;;;;;5115021;28;20186;-77
2021/04/20 06:58:08;;;;;;;56.47;38.05;;;20.30;99.90;;;;;;5115005;28;20157;-78
2021/04/20 07:00:48;;;;;;;52.17;34.03;;;21.60;99.90;;;;;;5116064;28;20202;-77
2021/04/20 07:03:53;;;;;;;56.50;37.55;;;22.80;99.90;;;;;;5116196;28;20209;-77
2021/04/20 07:06:27;;;;;;;47.35;33.75;;;24.10;99.90;;;;;;5083442;28;20181;-78
2021/04/20 07:09:18;;;;;;;49.60;36.47;;;24.90;99.90;;;;;;5115513;28;20166;-77
2021/04/20 07:11:48;;;;;;;44.40;36.92;;;25.40;99.90;;;;;;5114035;28;20162;-77
2021/04/20 07:14:40;;;;;;;42.70;33.78;;;26.20;99.90;;;;;;5114243;28;20322;-77
2021/04/20 07:17:17;;;;;;;45.25;35.90;;;26.90;98.30;;;;;;5108383;28;21532;-77
2021/04/20 07:19:55;;;;;;;49.35;36.05;;;27.70;96.40;;;;;;5114668;28;20185;-77
2021/04/20 07:22:50;;;;;;;52.88;39.80;;;28.20;95.70;;;;;;5114307;28;20613;-77
2021/04/20 07:25:38;;;;;;;48.08;35.55;;;28.70;93.70;;;;;;5115298;28;20173;-78
2021/04/20 07:28:16;;;;;;;57.05;38.92;;;28.90;92.70;;;;;;5115967;28;20233;-77
2021/04/20 07:30:53;;;;;;;57.15;38.05;;;29.40;92.00;;;;;;5115656;28;20184;-77
2021/04/20 07:33:28;;;;;;;49.78;34.88;;;30.20;90.60;;;;;;5115080;28;20196;-78
2021/04/20 07:36:09;;;;;;;45.13;36.97;;;30.80;88.60;;;;;;5114733;28;20213;-77
2021/04/20 07:38:54;;;;;;;53.42;40.28;;;31.30;87.50;;;;;;5133445;27;20200;-77
2021/04/20 07:41:51;;;;;;;49.42;33.70;;;32.10;84.90;;;;;;5134704;27;20229;-78
2021/04/20 07:44:20;;;;;;;60.80;37.33;;;32.50;82.50;;;;;;5130332;27;20161;-77
2021/04/20 07:46:53;;;;;;;50.28;36.88;;;33.10;79.30;;;;;;5115262;28;20173;-78
2021/04/20 07:49:41;;;;;;;57.15;41.78;;;33.60;78.20;;;;;;5115086;28;20218;-77
2021/04/20 07:52:13;;;;;;;54.80;37.10;;;34.10;75.20;;;;;;5115198;28;20153;-77
2021/04/20 07:55:00;;;;;;;55.85;41.20;;;33.00;73.30;;;;;;5113947;28;20570;-77
2021/04/20 07:57:34;;;;;;;53.67;41.03;;;32.80;72.90;;;;;;5113664;28;20246;-77
2021/04/20 08:00:10;;;;;;;55.70;40.78;;;33.20;73.60;;;;;;5116864;27;20163;-77
2021/04/20 08:03:03;;;;;;;54.85;39.63;;;34.10;72.40;;;;;;5114367;28;20172;-76
2021/04/20 08:05:55;;;;;;;54.33;40.97;;;33.50;71.20;;;;;;5109425;28;20169;-77
2021/04/20 08:09:06;;;;;;;51.22;38.95;;;34.60;70.70;;;;;;5114234;28;20249;-77
2021/04/20 08:11:44;;;;;;;54.08;38.30;;;33.90;67.30;;;;;;5041123;28;20272;-77
2021/04/20 08:14:25;;;;;;;49.92;38.53;;;32.70;71.10;;;;;;5089054;28;20174;-77
2021/04/20 08:16:55;;;;;;;43.30;38.13;;;33.50;70.00;;;;;;5093478;28;20197;-77
2021/04/20 08:19:32;;;;;;;42.45;34.90;;;34.70;69.40;;;;;;5104306;28;20714;-77
2021/04/20 08:22:00;;;;;;;58.40;38.88;;;35.70;66.10;;;;;;5114125;28;20690;-76
2021/04/20 08:24:35;;;;;;;51.35;38.70;;;36.50;63.00;;;;;;5113788;28;20168;-76
2021/04/20 08:27:12;;;;;;;44.40;37.72;;;35.20;64.20;;;;;;5113193;28;20604;-78
2021/04/20 08:29:41;;;;;;;51.95;35.65;;;34.30;65.00;;;;;;5114142;28;20157;-77
2021/04/20 08:32:12;;;;;;;49.55;36.58;;;33.50;66.70;;;;;;5113013;28;20176;-77
2021/04/20 08:34:48;;;;;;;49.40;36.92;;;34.40;65.60;;;;;;5114368;28;20159;-77
2021/04/20 08:37:32;;;;;;;44.05;34.60;;;35.30;63.80;;;;;;5113986;28;20317;-77
2021/04/20 08:40:07;;;;;;;44.65;37.80;;;36.10;62.50;;;;;;5112988;28;20218;-77
2021/04/20 08:42:45;;;;;;;45.97;37.30;;;36.90;62.00;;;;;;5113843;28;20161;-77
2021/04/20 08:45:38;;;;;;;40.05;32.35;;;37.30;60.60;;;;;;5114628;28;20236;-77
2021/04/20 08:48:20;;;;;;;50.97;35.33;;;37.80;60.20;;;;;;5112875;28;20169;-76
2021/04/20 08:51:00;;;;;;;50.90;36.08;;;38.50;59.20;;;;;;5114245;28;20161;-76
2021/04/20 08:53:51;;;;;;;31.95;28.17;;;39.00;58.30;;;;;;5108498;28;20176;-76
2021/04/20 08:56:35;;;;;;;43.63;34.67;;;39.30;58.20;;;;;;5112661;28;20196;-75
2021/04/20 08:59:40;;;;;;;45.28;35.67;;;39.90;56.80;;;;;;5112645;28;20634;-76
2021/04/20 09:02:22;;;;;;;26.63;23.83;;;39.50;56.60;;;;;;5101103;28;20255;-76
2021/04/20 09:05:10;;;;;;;33.78;30.05;;;39.50;56.40;;;;;;5112803;28;20161;-76
2021/04/20 09:07:50;;;;;;;40.85;30.27;;;39.40;55.70;;;;;;5113798;28;20160;-76
2021/04/20 09:10:19;;;;;;;34.10;27.92;;;39.90;55.60;;;;;;5113642;28;20215;-77
2021/04/20 09:12:47;;;;;;;28.25;25.35;;;40.00;54.70;;;;;;5113623;28;20681;-77
2021/04/20 09:15:16;;;;;;;34.08;28.02;;;39.60;54.30;;;;;;5113722;28;20185;-77
2021/04/20 09:17:56;;;;;;;40.55;30.38;;;39.20;53.60;;;;;;5113820;28;20533;-75
2021/04/20 09:20:44;;;;;;;32.70;26.15;;;39.30;55.40;;;;;;5113613;28;20165;-75
2021/04/20 09:23:38;;;;;;;35.95;29.45;;;40.20;54.60;;;;;;5114161;28;20202;-77
2021/04/20 09:26:31;;;;;;;45.67;31.85;;;40.40;53.80;;;;;;5113718;28;20153;-77
2021/04/20 09:29:03;;;;;;;42.15;31.58;;;40.00;53.70;;;;;;5114123;28;20170;-77
2021/04/20 09:31:42;;;;;;;48.33;33.47;;;39.30;54.60;;;;;;5092224;28;20161;-76
2021/04/20 09:34:11;;;;;;;45.88;31.90;;;39.40;54.30;;;;;;5102319;28;20179;-76
2021/04/20 09:36:40;;;;;;;40.20;32.47;;;39.20;54.00;;;;;;5113393;28;20195;-76
2021/04/20 09:39:07;;;;;;;38.42;30.38;;;39.60;53.80;;;;;;5099728;28;20185;-76
2021/04/20 09:41:43;;;;;;;40.40;30.48;;;40.10;54.30;;;;;;5113950;28;20157;-77
2021/04/20 09:44:14;;;;;;;38.45;31.92;;;40.50;53.80;;;;;;5116149;28;20609;-77
2021/04/20 09:46:53;;;;;;;37.05;32.05;;;39.80;53.00;;;;;;5117557;28;20172;-76
2021/04/20 09:50:13;;;;;;;49.75;33.65;;;39.10;54.90;;;;;;5116247;28;20176;-76
2021/04/20 09:53:01;;;;;;;40.55;33.45;;;37.50;55.00;;;;;;5013993;28;20180;-78
2021/04/20 09:55:41;;;;;;;37.78;31.23;;;37.50;56.00;;;;;;5122430;27;20205;-78
2021/04/20 09:58:08;;;;;;;44.28;31.52;;;38.10;55.70;;;;;;5116513;28;20175;-78
2021/04/20 10:00:34;;;;;;;36.83;32.63;;;38.10;56.00;;;;;;5116956;28;20248;-78
2021/04/20 10:03:10;;;;;;;41.65;33.42;;;38.40;54.80;;;;;;5116728;28;20525;-77
2021/04/20 10:05:43;;;;;;;37.20;31.23;;;38.90;54.60;;;;;;5115351;28;20175;-77
2021/04/20 10:08:29;;;;;;;33.30;28.75;;;39.50;54.50;;;;;;5116747;28;20168;-77
2021/04/20 10:11:03;;;;;;;38.60;31.50;;;39.90;53.90;;;;;;5115643;28;20172;-77
2021/04/20 10:13:40;;;;;;;41.25;31.33;;;39.70;52.90;;;;;;5116933;28;20566;-76
2021/04/20 10:16:15;;;;;;;39.85;31.23;;;38.60;54.10;;;;;;5116912;28;20184;-77
2021/04/20 10:18:58;;;;;;;34.97;27.25;;;38.40;54.30;;;;;;5116468;28;20169;-77
2021/04/20 10:21:52;;;;;;;29.50;24.27;;;37.70;53.90;;;;;;5116306;28;20153;-77
2021/04/20 10:24:22;;;;;;;41.53;26.17;;;38.20;53.70;;;;;;5116285;28;20149;-75
2021/04/20 10:27:01;;;;;;;28.00;24.05;;;38.80;52.50;;;;;;5116412;28;20623;-75
2021/04/20 10:29:33;;;;;;;40.30;26.98;;;37.90;51.60;;;;;;5116061;28;20169;-76
2021/04/20 10:32:16;;;;;;;24.20;19.70;;;38.70;52.50;;;;;;5115204;28;20624;-75
2021/04/20 10:34:49;;;;;;;24.65;21.33;;;39.10;52.30;;;;;;5114751;28;20164;-80
2021/04/20 10:37:20;;;;;;;25.83;21.00;;;39.10;50.90;;;;;;5115005;28;20193;-77
2021/04/20 10:39:49;;;;;;;33.25;22.85;;;38.90;51.60;;;;;;5116729;28;20234;-77
2021/04/20 10:42:15;;;;;;;24.20;18.52;;;38.70;51.30;;;;;;5115849;28;20301;-79
2021/04/20 10:44:47;;;;;;;21.85;14.90;;;39.10;49.70;;;;;;5116481;28;20175;-77
2021/04/20 10:47:18;;;;;;;25.85;20.48;;;39.60;51.10;;;;;;5116683;28;20184;-76
2021/04/20 10:49:51;;;;;;;25.77;23.10;;;39.00;49.00;;;;;;5115911;27;20161;-77
2021/04/20 10:52:19;;;;;;;24.85;17.42;;;37.10;51.20;;;;;;5115991;28;20218;-77
2021/04/20 10:54:46;;;;;;;25.55;21.42;;;36.60;51.90;;;;;;5114909;28;20197;-76
2021/04/20 10:57:13;;;;;;;31.67;26.95;;;38.00;51.90;;;;;;5114320;28;20204;-76
2021/04/20 10:59:42;;;;;;;40.10;27.67;;;37.20;52.70;;;;;;5115819;28;20633;-76
2021/04/20 11:02:18;;;;;;;33.25;27.83;;;34.10;54.60;;;;;;5115708;27;20191;-76
2021/04/20 11:04:45;;;;;;;32.58;27.00;;;32.60;56.70;;;;;;5116171;27;20172;-76
2021/04/20 11:07:21;;;;;;;31.65;27.35;;;33.30;56.70;;;;;;5115975;28;20226;-76
2021/04/20 11:09:54;;;;;;;37.28;28.05;;;33.90;56.70;;;;;;5115652;28;20188;-76
2021/04/20 11:12:20;;;;;;;37.08;26.48;;;34.00;56.20;;;;;;5113843;28;20165;-76
2021/04/20 11:14:48;;;;;;;27.17;22.73;;;34.70;55.80;;;;;;5114846;28;20491;-76
2021/04/20 11:17:42;;;;;;;37.10;25.20;;;35.50;55.00;;;;;;5115667;28;20227;-76
2021/04/20 11:20:14;;;;;;;31.63;23.88;;;34.60;55.10;;;;;;5115607;28;20200;-76
2021/04/20 11:22:48;;;;;;;27.42;21.88;;;35.00;55.60;;;;;;5115509;28;20680;-76
2021/04/20 11:25:25;;;;;;;31.95;21.52;;;36.60;53.40;;;;;;5114557;28;20161;-76
2021/04/20 11:27:56;;;;;;;31.73;20.80;;;37.50;53.00;;;;;;5115813;28;20159;-77
2021/04/20 11:30:33;;;;;;;24.27;18.10;;;38.20;52.20;;;;;;5114373;28;20180;-77
2021/04/20 11:33:05;;;;;;;30.95;18.83;;;38.50;52.50;;;;;;5115554;28;20180;-77
2021/04/20 11:35:31;;;;;;;23.10;19.08;;;39.10;49.80;;;;;;5115234;28;20299;-76
2021/04/20 11:38:00;;;;;;;22.45;16.58;;;39.40;49.30;;;;;;5115498;28;20665;-77
2021/04/20 11:40:33;;;;;;;20.70;17.75;;;38.70;49.50;;;;;;5115138;28;20191;-75
2021/04/20 11:43:02;;;;;;;18.63;16.70;;;38.40;49.80;;;;;;5115429;28;20157;-77
2021/04/20 11:45:30;;;;;;;22.48;19.80;;;34.90;51.80;;;;;;5115224;28;20485;-76
2021/04/20 11:48:10;;;;;;;24.23;19.30;;;31.10;56.20;;;;;;5115302;28;20177;-76
2021/04/20 11:50:39;;;;;;;23.33;18.52;;;29.60;56.70;;;;;;5115041;28;20165;-77
2021/04/20 11:53:08;;;;;;;27.30;19.83;;;31.50;57.90;;;;;;5115131;28;20177;-76
2021/04/20 11:55:45;;;;;;;24.13;19.95;;;33.70;56.00;;;;;;5115024;28;20296;-76
2021/04/20 11:58:23;;;;;;;20.52;17.67;;;35.30;52.90;;;;;;5115010;28;20203;-77
2021/04/20 12:00:54;;;;;;;22.85;18.40;;;36.30;52.40;;;;;;5115060;28;20168;-76
2021/04/20 12:03:21;;;;;;;33.95;17.52;;;35.10;53.50;;;;;;5113432;28;20223;-77
2021/04/20 12:05:52;;;;;;;27.38;19.95;;;34.30;54.30;;;;;;5113009;28;20173;-76
2021/04/20 12:08:32;;;;;;;24.95;20.05;;;34.50;54.60;;;;;;5114676;28;20150;-77
2021/04/20 12:10:59;;;;;;;22.60;17.65;;;33.70;53.90;;;;;;5114545;28;20248;-76
2021/04/20 12:13:30;;;;;;;23.77;19.42;;;34.30;54.50;;;;;;5114606;28;20517;-76
2021/04/20 12:15:59;;;;;;;36.15;19.40;;;33.20;55.30;;;;;;5114724;28;20184;-77
2021/04/20 12:18:28;;;;;;;27.00;19.20;;;32.90;55.90;;;;;;5114712;28;20193;-76
2021/04/20 12:20:58;;;;;;;31.33;21.65;;;32.20;56.20;;;;;;5112829;28;20237;-76
2021/04/20 12:23:25;;;;;;;21.80;19.10;;;31.10;57.50;;;;;;5114217;28;20162;-76
2021/04/20 12:25:52;;;;;;;29.27;20.30;;;30.20;58.60;;;;;;5114499;28;20174;-76
2021/04/20 12:28:19;;;;;;;30.33;20.65;;;30.40;58.50;;;;;;5114659;28;20184;-76
2021/04/20 12:30:47;;;;;;;39.88;21.30;;;29.20;59.20;;;;;;5114291;28;20176;-76
2021/04/20 12:33:25;;;;;;;22.77;20.40;;;28.70;60.40;;;;;;5114094;28;20550;-76
2021/04/20 12:35:51;;;;;;;25.67;19.48;;;28.40;59.40;;;;;;5113874;28;20588;-76
2021/04/20 12:38:44;;;;;;;25.70;20.90;;;27.80;63.20;;;;;;5114330;28;20178;-76
2021/04/20 12:41:10;;;;;;;32.70;22.77;;;28.00;61.10;;;;;;5107858;28;20186;-76
2021/04/20 12:43:36;;;;;;;27.58;22.50;;;28.30;61.10;;;;;;5113140;28;20176;-76
2021/04/20 12:46:08;;;;;;;36.55;26.48;;;27.70;62.00;;;;;;5113987;28;20176;-77
2021/04/20 12:48:38;;;;;;;34.53;25.65;;;26.70;64.00;;;;;;5114296;28;20621;-76
2021/04/20 12:51:05;;;;;;;43.15;27.55;;;26.50;65.30;;;;;;5113969;28;20174;-75
2021/04/20 12:53:33;;;;;;;32.30;25.60;;;24.60;66.80;;;;;;5113805;28;20518;-75
2021/04/20 12:56:00;;;;;;;34.35;25.58;;;23.30;70.90;;;;;;5109948;28;20200;-76